createdAt,value
2023-09-10T00:04:49.021Z,60.71
2023-09-10T00:19:36.064Z,64.09
2023-09-10T00:22:20.434Z,63.46
2023-09-10T00:25:07.594Z,62.39
2023-09-10T00:30:43.985Z,61.04
2023-09-10T00:33:19.303Z,60.30
2023-09-10T00:36:06.894Z,59.51
2023-09-10T00:41:42.797Z,61.17
2023-09-10T00:47:01.103Z,64.13
2023-09-10T00:49:31.955Z,63.30
2023-09-10T00:52:07.087Z,62.41
2023-09-10T00:54:39.999Z,61.67
2023-09-10T00:59:56.214Z,60.90
2023-09-10T01:02:25.967Z,60.55
2023-09-10T01:04:57.241Z,60.22
2023-09-10T01:07:29.972Z,59.87
2023-09-10T01:09:59.904Z,59.50
2023-09-10T01:12:50.841Z,59.26
2023-09-10T01:15:23.351Z,61.02
2023-09-10T01:21:09.096Z,63.91
2023-09-10T01:27:33.577Z,61.91
2023-09-10T01:33:37.926Z,60.71
2023-09-10T01:36:20.040Z,60.20
2023-09-10T01:39:12.121Z,59.67
2023-09-10T01:41:55.287Z,59.35
2023-09-10T01:44:45.888Z,61.01
2023-09-10T01:47:21.007Z,63.03
2023-09-10T01:49:53.740Z,64.12
2023-09-10T01:52:26.435Z,63.11
2023-09-10T01:54:56.871Z,61.90
2023-09-10T01:57:27.837Z,61.18
2023-09-10T02:00:13.262Z,60.74
2023-09-10T02:02:44.943Z,60.41
2023-09-10T02:05:16.116Z,60.00
2023-09-10T02:07:53.166Z,59.54
2023-09-10T02:10:22.956Z,59.26
2023-09-10T02:12:53.652Z,60.88
2023-09-10T02:15:23.143Z,62.79
2023-09-10T02:17:55.026Z,64.18
2023-09-10T02:20:24.847Z,63.49
2023-09-10T02:22:54.544Z,62.54
2023-09-10T02:25:24.199Z,61.71
2023-09-10T02:27:53.052Z,61.02
2023-09-10T02:30:22.194Z,60.38
2023-09-10T02:32:53.426Z,59.93
2023-09-10T02:35:23.936Z,59.39
2023-09-10T02:37:53.142Z,59.47
2023-09-10T02:40:23.660Z,61.23
2023-09-10T02:42:54.183Z,63.20
2023-09-10T02:45:33.844Z,63.77
2023-09-10T02:48:03.081Z,62.70
2023-09-10T02:50:32.117Z,61.92
2023-09-10T02:53:01.900Z,61.22
2023-09-10T02:55:30.935Z,60.54
2023-09-10T02:57:59.668Z,59.95
2023-09-10T03:00:29.424Z,59.50
2023-09-10T03:02:59.321Z,59.22
2023-09-10T03:05:33.209Z,60.80
2023-09-10T03:08:03.619Z,62.85
2023-09-10T03:10:33.989Z,64.26
2023-09-10T03:13:03.425Z,63.43
2023-09-10T03:15:33.371Z,62.34
2023-09-10T03:18:03.273Z,61.60
2023-09-10T03:20:33.335Z,61.25
2023-09-10T03:23:03.664Z,60.80
2023-09-10T03:25:37.169Z,60.36
2023-09-10T03:28:08.503Z,59.84
2023-09-10T03:30:38.417Z,59.06
2023-09-10T03:33:07.663Z,59.66
2023-09-10T03:35:36.987Z,61.30
2023-09-10T03:38:07.003Z,62.97
2023-09-10T03:40:37.399Z,64.23
2023-09-10T03:43:08.150Z,63.48
2023-09-10T03:45:37.805Z,62.64
2023-09-10T03:48:07.316Z,61.97
2023-09-10T03:50:37.813Z,61.40
2023-09-10T03:53:08.596Z,60.58
2023-09-10T03:55:37.975Z,59.86
2023-09-10T03:58:08.307Z,59.40
2023-09-10T04:00:39.150Z,59.55
2023-09-10T04:03:09.885Z,61.34
2023-09-10T04:05:41.716Z,63.35
2023-09-10T04:08:11.613Z,64.03
2023-09-10T04:10:42.340Z,63.04
2023-09-10T04:13:11.835Z,62.03
2023-09-10T04:15:41.053Z,61.49
2023-09-10T04:18:10.665Z,61.06
2023-09-10T04:20:40.830Z,60.70
2023-09-10T04:23:10.213Z,60.35
2023-09-10T04:25:40.053Z,60.00
2023-09-10T04:28:10.213Z,59.67
2023-09-10T04:30:41.235Z,59.41
2023-09-10T04:33:10.423Z,59.16
2023-09-10T04:35:50.343Z,60.83
2023-09-10T04:38:21.867Z,63.27
2023-09-10T04:40:52.483Z,64.78
2023-09-10T04:43:22.089Z,64.01
2023-09-10T04:45:50.841Z,63.15
2023-09-10T04:48:20.287Z,62.49
2023-09-10T04:50:50.068Z,61.90
2023-09-10T04:53:19.803Z,61.35
2023-09-10T04:55:56.767Z,60.98
2023-09-10T04:58:28.102Z,60.66
2023-09-10T05:00:57.844Z,60.29
2023-09-10T05:03:28.260Z,59.93
2023-09-10T05:06:02.292Z,59.57
2023-09-10T05:08:31.574Z,59.21
2023-09-10T05:11:02.835Z,60.29
2023-09-10T05:13:34.818Z,62.11
2023-09-10T05:16:04.441Z,64.01
2023-09-10T05:18:35.155Z,63.49
2023-09-10T05:21:05.484Z,62.52
2023-09-10T05:23:36.938Z,61.56
2023-09-10T05:26:15.777Z,60.76
2023-09-10T05:28:50.173Z,59.97
2023-09-10T05:31:33.627Z,59.28
2023-09-10T05:34:05.606Z,59.28
2023-09-10T05:36:41.820Z,60.82
2023-09-10T05:39:38.899Z,62.43
2023-09-10T05:42:27.474Z,63.81
2023-09-10T05:45:10.559Z,62.75
2023-09-10T05:47:46.614Z,61.42
2023-09-10T05:50:32.514Z,60.49
2023-09-10T05:55:58.754Z,59.54
2023-09-10T05:58:49.670Z,59.21
2023-09-10T06:01:42.683Z,60.94
2023-09-10T06:04:52.338Z,62.64
2023-09-10T06:11:23.341Z,61.89
2023-09-10T06:14:05.698Z,60.52
2023-09-10T06:20:14.339Z,59.33
2023-09-10T06:22:59.856Z,60.82
2023-09-10T06:25:43.735Z,61.98
2023-09-10T06:32:03.304Z,61.78
2023-09-10T06:34:59.091Z,60.22
2023-09-10T06:37:32.713Z,59.49
2023-09-10T06:40:03.037Z,58.89
2023-09-10T06:42:33.242Z,60.20
2023-09-10T06:45:11.372Z,61.46
2023-09-10T06:47:40.090Z,62.01
2023-09-10T06:50:09.107Z,62.96
2023-09-10T06:52:38.341Z,63.03
2023-09-10T06:55:07.412Z,61.08
2023-09-10T06:57:36.535Z,59.51
2023-09-10T07:00:05.423Z,58.21
2023-09-10T07:02:34.510Z,59.11
2023-09-10T07:05:04.243Z,60.08
2023-09-10T07:07:32.806Z,61.43
2023-09-10T07:10:01.869Z,61.64
2023-09-10T07:12:31.003Z,62.78
2023-09-10T07:14:59.680Z,62.95
2023-09-10T07:17:28.911Z,59.90
2023-09-10T07:19:57.656Z,58.64
2023-09-10T07:22:26.687Z,58.61
2023-09-10T07:24:55.786Z,59.87
2023-09-10T07:27:24.260Z,60.54
2023-09-10T07:29:52.855Z,60.20
2023-09-10T07:32:21.409Z,61.06
2023-09-10T07:34:50.450Z,62.11
2023-09-10T07:37:19.658Z,62.91
2023-09-10T07:39:48.932Z,60.99
2023-09-10T07:42:17.545Z,59.28
2023-09-10T07:44:46.070Z,57.45
2023-09-10T07:47:14.819Z,58.13
2023-09-10T07:49:43.964Z,58.67
2023-09-10T07:52:13.001Z,58.45
2023-09-10T07:54:43.741Z,58.72
2023-09-10T07:57:14.998Z,59.39
2023-09-10T07:59:45.902Z,60.04
2023-09-10T08:02:15.074Z,60.94
2023-09-10T08:04:45.903Z,59.56
2023-09-10T08:07:16.579Z,59.98
2023-09-10T08:09:45.784Z,60.88
2023-09-10T08:12:14.945Z,60.91
2023-09-10T08:14:44.226Z,61.64
2023-09-10T08:17:13.923Z,61.57
2023-09-10T08:19:43.866Z,59.43
2023-09-10T08:22:12.976Z,60.47
2023-09-10T08:24:42.584Z,59.21
2023-09-10T08:27:13.951Z,59.10
2023-09-10T08:29:43.050Z,59.07
2023-09-10T08:32:14.429Z,60.21
2023-09-10T08:34:45.581Z,59.43
2023-09-10T08:37:14.517Z,59.21
2023-09-10T08:39:43.291Z,59.91
2023-09-10T08:42:27.168Z,59.63
2023-09-10T08:44:58.256Z,57.51
2023-09-10T08:47:34.533Z,57.61
2023-09-10T08:50:13.309Z,56.79
2023-09-10T08:52:49.911Z,56.82
2023-09-10T08:55:20.957Z,57.17
2023-09-10T08:57:52.876Z,56.45
2023-09-10T09:00:23.716Z,56.90
2023-09-10T09:02:54.793Z,56.20
2023-09-10T09:05:28.765Z,55.52
2023-09-10T09:08:05.570Z,54.22
2023-09-10T09:10:35.384Z,55.26
2023-09-10T09:13:11.424Z,53.61
2023-09-10T09:15:41.093Z,52.89
2023-09-10T09:18:15.954Z,52.23
2023-09-10T09:20:52.354Z,50.59
2023-09-10T09:23:33.797Z,50.92
2023-09-10T09:26:03.668Z,50.34
2023-09-10T09:28:35.255Z,51.21
2023-09-10T09:31:12.106Z,50.72
2023-09-10T09:33:46.756Z,49.30
2023-09-10T09:36:15.562Z,49.00
2023-09-10T09:38:48.399Z,48.89
2023-09-10T09:41:18.263Z,49.05
2023-09-10T09:43:47.713Z,48.59
2023-09-10T09:46:17.823Z,47.88
2023-09-10T09:48:48.120Z,48.30
2023-09-10T09:51:18.058Z,47.51
2023-09-10T09:53:47.731Z,46.96
2023-09-10T09:56:19.105Z,47.55
2023-09-10T09:58:47.912Z,47.10
2023-09-10T10:01:17.294Z,46.94
2023-09-10T10:03:47.014Z,47.02
2023-09-10T10:06:17.966Z,46.87
2023-09-10T10:08:51.625Z,47.87
2023-09-10T10:11:33.788Z,47.67
2023-09-10T10:14:05.065Z,47.32
2023-09-10T10:16:34.597Z,46.77
2023-09-10T10:19:05.174Z,45.93
2023-09-10T10:21:34.111Z,46.34
2023-09-10T10:24:04.579Z,46.58
2023-09-10T10:26:35.439Z,45.93
2023-09-10T10:29:05.628Z,45.29
2023-09-10T10:31:38.346Z,45.81
2023-09-10T10:34:10.890Z,45.23
2023-09-10T10:37:04.749Z,45.25
2023-09-10T10:39:43.180Z,44.33
2023-09-10T10:42:17.436Z,44.69
2023-09-10T10:44:47.205Z,44.00
2023-09-10T10:47:23.572Z,43.16
2023-09-10T10:49:57.780Z,43.91
2023-09-10T10:52:32.190Z,43.15
2023-09-10T10:55:01.563Z,43.78
2023-09-10T10:57:31.227Z,43.27
2023-09-10T11:00:02.909Z,42.58
2023-09-10T11:02:32.577Z,42.87
2023-09-10T11:05:06.173Z,41.30
2023-09-10T11:07:36.612Z,41.40
2023-09-10T11:10:28.773Z,41.22
2023-09-10T11:13:07.782Z,40.48
2023-09-10T11:15:37.747Z,39.59
2023-09-10T11:18:38.776Z,38.85
2023-09-10T11:21:16.725Z,38.11
2023-09-10T11:23:53.265Z,38.00
2023-09-10T11:26:21.805Z,37.01
2023-09-10T11:28:56.200Z,37.12
2023-09-10T11:31:40.469Z,35.15
2023-09-10T11:34:21.694Z,33.69
2023-09-10T11:37:03.684Z,33.10
2023-09-10T11:39:34.210Z,33.70
2023-09-10T11:42:06.420Z,31.06
2023-09-10T11:44:36.734Z,30.92
2023-09-10T11:47:07.087Z,30.40
2023-09-10T11:49:35.891Z,30.16
2023-09-10T11:52:05.295Z,29.11
2023-09-10T11:54:35.103Z,28.94
2023-09-10T11:57:05.093Z,28.34
2023-09-10T11:59:34.099Z,28.16
2023-09-10T12:02:04.825Z,28.11
2023-09-10T12:04:35.634Z,28.30
2023-09-10T12:07:05.568Z,27.66
2023-09-10T12:09:34.575Z,26.74
2023-09-10T12:12:16.412Z,25.49
2023-09-10T12:14:45.279Z,25.68
2023-09-10T12:17:14.259Z,25.29
2023-09-10T12:19:44.575Z,25.30
2023-09-10T12:22:16.252Z,25.13
2023-09-10T12:24:46.223Z,24.31
2023-09-10T12:27:14.878Z,23.90
2023-09-10T12:29:44.881Z,23.81
2023-09-10T12:32:14.401Z,23.76
2023-09-10T12:34:44.737Z,23.22
2023-09-10T12:37:16.816Z,23.56
2023-09-10T12:39:47.206Z,22.63
2023-09-10T12:42:16.689Z,23.75
2023-09-10T12:44:46.362Z,23.32
2023-09-10T12:47:15.694Z,22.75
2023-09-10T12:49:47.164Z,22.60
2023-09-10T12:52:17.129Z,22.61
2023-09-10T12:54:45.967Z,21.67
2023-09-10T12:57:15.053Z,21.93
2023-09-10T12:59:44.368Z,21.62
2023-09-10T13:02:13.157Z,21.49
2023-09-10T13:04:41.885Z,21.41
2023-09-10T13:07:14.166Z,20.46
2023-09-10T13:09:42.929Z,21.62
2023-09-10T13:12:12.293Z,21.08
2023-09-10T13:14:41.425Z,20.62
2023-09-10T13:17:12.075Z,20.59
2023-09-10T13:19:41.218Z,19.85
2023-09-10T13:22:09.945Z,19.95
2023-09-10T13:24:38.802Z,19.44
2023-09-10T13:27:08.292Z,19.48
2023-09-10T13:29:37.154Z,19.92
2023-09-10T13:32:07.375Z,19.83
2023-09-10T13:34:36.339Z,19.59
2023-09-10T13:37:05.189Z,19.52
2023-09-10T13:39:35.471Z,19.26
2023-09-10T13:42:05.277Z,19.34
2023-09-10T13:44:34.764Z,19.00
2023-09-10T13:47:05.049Z,19.06
2023-09-10T13:49:33.782Z,19.28
2023-09-10T13:52:03.105Z,18.71
2023-09-10T13:54:31.768Z,18.21
2023-09-10T13:57:00.354Z,18.22
2023-09-10T13:59:29.198Z,17.90
2023-09-10T14:01:59.303Z,18.91
2023-09-10T14:04:28.012Z,18.32
2023-09-10T14:06:56.721Z,17.99
2023-09-10T14:09:27.589Z,17.03
2023-09-10T14:11:56.412Z,17.63
2023-09-10T14:14:26.488Z,17.58
2023-09-10T14:16:55.139Z,17.37
2023-09-10T14:19:23.693Z,17.42
2023-09-10T14:21:52.451Z,17.37
2023-09-10T14:24:21.117Z,17.02
2023-09-10T14:26:49.787Z,17.21
2023-09-10T14:29:19.174Z,16.61
2023-09-10T14:31:48.026Z,15.79
2023-09-10T14:34:17.413Z,16.34
2023-09-10T14:36:46.161Z,16.28
2023-09-10T14:39:15.900Z,16.23
2023-09-10T14:41:44.977Z,16.16
2023-09-10T14:44:14.094Z,16.40
2023-09-10T14:46:42.901Z,15.94
2023-09-10T14:49:11.588Z,16.06
2023-09-10T14:51:40.255Z,16.70
2023-09-10T14:54:09.584Z,17.31
2023-09-10T14:56:38.466Z,17.45
2023-09-10T14:59:07.700Z,18.07
2023-09-10T15:01:37.059Z,17.62
2023-09-10T15:04:06.340Z,17.51
2023-09-10T15:06:35.080Z,16.44
2023-09-10T15:09:05.332Z,16.60
2023-09-10T15:11:34.544Z,17.43
2023-09-10T15:14:03.309Z,17.94
2023-09-10T15:16:32.641Z,17.44
2023-09-10T15:19:01.817Z,18.11
2023-09-10T15:21:30.370Z,17.89
2023-09-10T15:24:00.205Z,17.06
2023-09-10T15:26:29.039Z,17.41
2023-09-10T15:28:57.780Z,16.05
2023-09-10T15:31:27.199Z,16.07
2023-09-10T15:33:56.311Z,16.94
2023-09-10T15:36:25.416Z,18.43
2023-09-10T15:38:54.477Z,19.53
2023-09-10T15:41:23.200Z,17.90
2023-09-10T15:43:52.478Z,18.51
2023-09-10T15:46:21.494Z,17.93
2023-09-10T15:48:50.729Z,18.44
2023-09-10T15:51:20.382Z,19.20
2023-09-10T15:53:49.468Z,17.28
2023-09-10T15:56:18.108Z,17.54
2023-09-10T15:58:47.377Z,17.67
2023-09-10T16:01:16.149Z,18.43
2023-09-10T16:03:46.249Z,18.40
2023-09-10T16:06:15.215Z,19.57
2023-09-10T16:08:43.993Z,19.19
2023-09-10T16:11:13.702Z,19.77
2023-09-10T16:13:44.560Z,20.54
2023-09-10T16:16:13.122Z,21.02
2023-09-10T16:18:42.358Z,21.19
2023-09-10T16:21:11.032Z,21.88
2023-09-10T16:23:40.051Z,21.85
2023-09-10T16:26:09.090Z,22.44
2023-09-10T16:28:38.418Z,22.99
2023-09-10T16:31:11.267Z,23.32
2023-09-10T16:33:40.288Z,24.32
2023-09-10T16:36:09.316Z,24.74
2023-09-10T16:38:38.016Z,25.47
2023-09-10T16:41:06.680Z,25.84
2023-09-10T16:43:35.286Z,26.29
2023-09-10T16:46:04.468Z,27.11
2023-09-10T16:48:33.167Z,28.21
2023-09-10T16:51:01.851Z,29.48
2023-09-10T16:53:30.640Z,30.83
2023-09-10T16:55:59.936Z,32.14
2023-09-10T16:58:28.644Z,33.47
2023-09-10T17:00:57.454Z,35.32
2023-09-10T17:03:27.911Z,36.27
2023-09-10T17:05:57.981Z,37.65
2023-09-10T17:08:27.246Z,38.71
2023-09-10T17:10:58.320Z,40.45
2023-09-10T17:13:27.161Z,41.63
2023-09-10T17:16:09.056Z,42.95
2023-09-10T17:18:39.281Z,44.20
2023-09-10T17:21:10.660Z,45.90
2023-09-10T17:23:39.467Z,47.04
2023-09-10T17:26:12.159Z,48.36
2023-09-10T17:28:41.808Z,49.54
2023-09-10T17:31:10.469Z,49.66
2023-09-10T17:33:39.417Z,51.40
2023-09-10T17:36:09.215Z,52.96
2023-09-10T17:38:39.043Z,53.36
2023-09-10T17:41:08.779Z,53.87
2023-09-10T17:43:38.186Z,54.54
2023-09-10T17:46:08.263Z,56.52
2023-09-10T17:48:38.191Z,58.98
2023-09-10T17:51:08.152Z,59.59
2023-09-10T17:53:37.351Z,59.91
2023-09-10T17:56:07.821Z,60.61
2023-09-10T17:58:38.726Z,60.79
2023-09-10T18:01:08.720Z,60.69
2023-09-10T18:03:39.395Z,61.18
2023-09-10T18:06:09.388Z,62.09
2023-09-10T18:08:38.397Z,63.54
2023-09-10T18:11:08.372Z,62.72
2023-09-10T18:13:40.674Z,60.81
2023-09-10T18:16:10.734Z,59.08
2023-09-10T18:18:40.417Z,58.52
2023-09-10T18:21:11.422Z,59.15
2023-09-10T18:23:40.674Z,60.43
2023-09-10T18:26:11.535Z,61.79
2023-09-10T18:28:40.797Z,62.44
2023-09-10T18:31:09.515Z,63.21
2023-09-10T18:33:39.234Z,62.36
2023-09-10T18:36:09.041Z,61.02
2023-09-10T18:38:43.370Z,59.77
2023-09-10T18:41:12.081Z,58.70
2023-09-10T18:43:41.131Z,59.31
2023-09-10T18:46:10.008Z,60.97
2023-09-10T18:48:39.443Z,62.24
2023-09-10T18:51:08.611Z,63.49
2023-09-10T18:53:37.291Z,62.75
2023-09-10T18:56:06.449Z,61.34
2023-09-10T18:58:35.562Z,60.09
2023-09-10T19:01:04.314Z,58.62
2023-09-10T19:03:33.902Z,58.29
2023-09-10T19:06:03.268Z,59.82
2023-09-10T19:08:32.522Z,61.08
2023-09-10T19:11:01.209Z,62.32
2023-09-10T19:13:30.158Z,63.46
2023-09-10T19:16:01.997Z,62.62
2023-09-10T19:18:31.524Z,61.23
2023-09-10T19:21:00.680Z,60.20
2023-09-10T19:23:29.512Z,59.45
2023-09-10T19:25:58.232Z,58.90
2023-09-10T19:28:27.209Z,60.00
2023-09-10T19:30:56.158Z,61.58
2023-09-10T19:33:25.415Z,63.02
2023-09-10T19:35:54.128Z,63.67
2023-09-10T19:38:24.035Z,62.17
2023-09-10T19:40:53.312Z,61.09
2023-09-10T19:43:23.195Z,60.05
2023-09-10T19:45:56.194Z,59.49
2023-09-10T19:48:25.311Z,58.81
2023-09-10T19:51:03.038Z,60.08
2023-09-10T19:53:31.770Z,61.04
2023-09-10T19:56:01.907Z,61.66
2023-09-10T19:58:34.125Z,63.59
2023-09-10T20:01:02.803Z,63.61
2023-09-10T20:03:32.415Z,62.62
2023-09-10T20:06:01.103Z,61.62
2023-09-10T20:08:29.799Z,60.60
2023-09-10T20:10:58.504Z,59.63
2023-09-10T20:13:27.052Z,59.07
2023-09-10T20:15:55.552Z,60.05
2023-09-10T20:18:24.236Z,61.42
2023-09-10T20:20:52.952Z,62.68
2023-09-10T20:23:21.711Z,64.08
2023-09-10T20:25:51.763Z,63.16
2023-09-10T20:28:20.327Z,62.12
2023-09-10T20:30:48.897Z,60.97
2023-09-10T20:33:17.713Z,60.16
2023-09-10T20:35:46.762Z,59.67
2023-09-10T20:38:15.447Z,58.97
2023-09-10T20:40:44.178Z,59.87
2023-09-10T20:43:13.092Z,61.40
2023-09-10T20:45:41.696Z,63.06
2023-09-10T20:48:10.537Z,63.64
2023-09-10T20:50:39.174Z,62.54
2023-09-10T20:53:07.939Z,61.61
2023-09-10T20:55:36.529Z,60.73
2023-09-10T20:58:05.344Z,59.92
2023-09-10T21:00:33.961Z,59.26
2023-09-10T21:03:13.722Z,59.46
2023-09-10T21:05:50.922Z,61.10
2023-09-10T21:08:19.921Z,62.76
2023-09-10T21:10:48.583Z,63.69
2023-09-10T21:13:17.192Z,62.69
2023-09-10T21:15:45.867Z,61.67
2023-09-10T21:18:16.139Z,60.93
2023-09-10T21:20:44.964Z,60.21
2023-09-10T21:23:14.064Z,59.39
2023-09-10T21:25:44.645Z,59.29
2023-09-10T21:28:14.260Z,60.65
2023-09-10T21:30:42.948Z,62.29
2023-09-10T21:33:11.628Z,63.99
2023-09-10T21:35:47.889Z,63.16
2023-09-10T21:38:24.709Z,62.48
2023-09-10T21:41:02.238Z,61.63
2023-09-10T21:44:13.571Z,60.85
2023-09-10T21:47:44.384Z,60.20
2023-09-10T21:50:41.472Z,59.50
2023-09-10T21:53:13.054Z,59.20
2023-09-10T21:56:58.967Z,60.40
2023-09-10T22:00:17.111Z,62.67
2023-09-10T22:11:32.301Z,61.63
2023-09-10T22:15:06.814Z,60.69
2023-09-10T22:17:48.334Z,60.13
2023-09-10T22:41:15.706Z,61.68
2023-09-10T22:51:03.169Z,59.50
2023-09-10T23:54:03.500Z,59.77
